createdAt,value
2023-03-25T00:00:57.739Z,14.83
2023-03-25T00:03:26.414Z,14.78
2023-03-25T00:05:54.550Z,14.78
2023-03-25T00:08:22.865Z,14.75
2023-03-25T00:10:54.959Z,14.75
2023-03-25T00:13:23.588Z,14.71
2023-03-25T00:15:53.438Z,14.71
2023-03-25T00:18:22.765Z,14.71
2023-03-25T00:20:51.296Z,14.62
2023-03-25T00:23:20.447Z,14.63
2023-03-25T00:25:49.655Z,14.55
2023-03-25T00:28:19.226Z,14.45
2023-03-25T00:30:47.374Z,14.39
2023-03-25T00:33:16.598Z,14.36
2023-03-25T00:35:45.080Z,14.27
2023-03-25T00:38:13.394Z,14.19
2023-03-25T00:40:41.774Z,14.17
2023-03-25T00:43:11.865Z,14.16
2023-03-25T00:45:41.243Z,14.09
2023-03-25T00:48:09.203Z,14.05
2023-03-25T00:50:37.117Z,13.94
2023-03-25T00:53:04.951Z,13.93
2023-03-25T00:55:33.043Z,13.92
2023-03-25T00:58:01.063Z,13.92
2023-03-25T01:00:29.020Z,13.86
2023-03-25T01:02:58.455Z,13.86
2023-03-25T01:05:26.581Z,13.87
2023-03-25T01:07:55.474Z,13.95
2023-03-25T01:10:23.755Z,13.99
2023-03-25T01:12:51.882Z,13.98
2023-03-25T01:15:19.726Z,13.96
2023-03-25T01:17:48.336Z,13.90
2023-03-25T01:20:17.742Z,13.80
2023-03-25T01:22:46.255Z,13.83
2023-03-25T01:25:14.172Z,13.88
2023-03-25T01:27:42.030Z,13.88
2023-03-25T01:30:11.445Z,13.90
2023-03-25T01:32:39.548Z,13.89
2023-03-25T01:35:08.283Z,14.00
2023-03-25T01:37:38.740Z,14.03
2023-03-25T01:40:10.419Z,14.00
2023-03-25T01:42:38.408Z,14.00
2023-03-25T01:45:17.129Z,13.99
2023-03-25T01:47:45.672Z,14.01
2023-03-25T01:50:15.252Z,13.98
2023-03-25T01:52:46.915Z,13.96
2023-03-25T01:55:15.454Z,13.99
2023-03-25T01:57:46.346Z,14.03
2023-03-25T02:00:16.628Z,14.02
2023-03-25T02:02:45.652Z,14.03
2023-03-25T02:05:21.483Z,14.06
2023-03-25T02:07:51.095Z,14.09
2023-03-25T02:10:20.527Z,14.05
2023-03-25T02:12:48.593Z,14.05
2023-03-25T02:15:18.956Z,14.06
2023-03-25T02:18:11.873Z,14.01
2023-03-25T02:21:08.310Z,14.02
2023-03-25T02:24:05.936Z,13.99
2023-03-25T02:27:14.543Z,14.04
2023-03-25T02:30:07.129Z,14.06
2023-03-25T02:33:12.971Z,14.08
2023-03-25T02:35:58.617Z,14.02
2023-03-25T02:38:40.511Z,13.99
2023-03-25T02:41:14.967Z,14.00
2023-03-25T02:43:51.901Z,14.02
2023-03-25T02:46:20.838Z,14.10
2023-03-25T02:48:55.203Z,14.11
2023-03-25T02:51:28.327Z,14.11
2023-03-25T02:54:01.071Z,14.06
2023-03-25T02:56:32.806Z,14.04
2023-03-25T02:59:03.955Z,14.01
2023-03-25T03:01:34.909Z,13.99
2023-03-25T03:04:03.634Z,13.99
2023-03-25T03:06:33.997Z,13.95
2023-03-25T03:09:27.280Z,13.93
2023-03-25T03:12:09.758Z,13.91
2023-03-25T03:14:57.254Z,13.91
2023-03-25T03:17:33.241Z,13.94
2023-03-25T03:20:07.581Z,13.97
2023-03-25T03:22:43.698Z,13.99
2023-03-25T03:25:21.885Z,13.98
2023-03-25T03:27:55.076Z,13.93
2023-03-25T03:30:29.900Z,13.88
2023-03-25T03:33:04.094Z,13.78
2023-03-25T03:35:38.411Z,13.73
2023-03-25T03:38:11.670Z,13.73
2023-03-25T03:40:46.131Z,13.74
2023-03-25T03:43:19.484Z,13.73
2023-03-25T03:45:51.480Z,13.73
2023-03-25T03:48:24.914Z,13.64
2023-03-25T03:50:56.778Z,13.62
2023-03-25T03:53:31.069Z,13.56
2023-03-25T03:56:04.957Z,13.62
2023-03-25T03:58:36.236Z,13.66
2023-03-25T04:01:10.782Z,13.66
2023-03-25T05:55:57.610Z,13.34
2023-03-25T05:58:26.127Z,13.36
2023-03-25T06:00:54.602Z,13.47
2023-03-25T06:03:26.376Z,13.56
2023-03-25T06:05:54.575Z,13.64
2023-03-25T06:08:26.302Z,13.64
2023-03-25T06:10:58.387Z,13.56
2023-03-25T06:13:27.984Z,13.58
2023-03-25T06:15:57.373Z,13.50
2023-03-25T06:18:25.786Z,13.49
2023-03-25T06:20:57.692Z,13.48
2023-03-25T06:23:26.497Z,13.37
2023-03-25T06:25:55.079Z,13.40
2023-03-25T06:28:23.761Z,13.49
2023-03-25T06:30:53.018Z,13.49
2023-03-25T06:33:42.609Z,13.61
2023-03-25T06:36:11.427Z,13.88
2023-03-25T06:38:39.736Z,14.07
2023-03-25T06:41:11.326Z,14.25
2023-03-25T06:43:40.030Z,14.39
2023-03-25T06:46:27.704Z,14.51
2023-03-25T06:49:11.682Z,14.54
2023-03-25T06:51:39.550Z,14.58
2023-03-25T06:54:07.415Z,14.59
2023-03-25T06:56:35.544Z,14.68
2023-03-25T06:59:05.250Z,14.62
2023-03-25T07:01:34.495Z,14.56
2023-03-25T07:04:02.334Z,14.52
2023-03-25T07:06:30.443Z,14.63
2023-03-25T07:08:58.336Z,14.63
2023-03-25T07:11:28.156Z,14.68
2023-03-25T07:13:56.402Z,14.76
2023-03-25T07:16:26.848Z,14.81
2023-03-25T07:18:56.782Z,14.84
2023-03-25T07:21:24.741Z,14.76
2023-03-25T07:23:52.981Z,14.58
2023-03-25T07:26:20.810Z,14.54
2023-03-25T07:28:48.691Z,14.55
2023-03-25T07:31:17.519Z,14.57
2023-03-25T07:33:45.498Z,14.61
2023-03-25T07:36:15.237Z,14.58
2023-03-25T07:38:44.316Z,14.50
2023-03-25T07:41:14.670Z,14.44
2023-03-25T07:43:55.324Z,14.38
2023-03-25T07:46:27.896Z,14.33
2023-03-25T07:48:56.118Z,14.29
2023-03-25T07:51:25.271Z,14.19
2023-03-25T07:53:53.326Z,14.09
2023-03-25T07:56:21.202Z,14.01
2023-03-25T07:58:49.767Z,14.00
2023-03-25T08:01:17.852Z,13.95
2023-03-25T08:03:45.764Z,13.96
2023-03-25T08:06:13.680Z,13.98
2023-03-25T08:08:43.016Z,14.06
2023-03-25T08:11:11.280Z,14.15
2023-03-25T08:13:39.499Z,14.26
2023-03-25T08:16:12.803Z,14.36
2023-03-25T08:18:45.117Z,14.39
2023-03-25T08:21:14.030Z,14.55
2023-03-25T08:23:44.620Z,14.66
2023-03-25T08:26:12.496Z,14.64
2023-03-25T08:28:40.282Z,14.73
2023-03-25T08:31:09.433Z,14.85
2023-03-25T08:33:41.091Z,15.00
2023-03-25T08:36:13.930Z,15.07
2023-03-25T08:38:43.382Z,15.14
2023-03-25T08:41:11.351Z,15.06
2023-03-25T08:43:39.461Z,15.01
2023-03-25T08:46:07.436Z,14.98
2023-03-25T08:48:35.529Z,15.17
2023-03-25T08:51:04.079Z,15.36
2023-03-25T08:53:32.047Z,15.33
2023-03-25T08:56:01.244Z,15.17
2023-03-25T08:58:29.142Z,14.89
2023-03-25T09:00:58.552Z,14.76
2023-03-25T09:03:28.088Z,14.69
2023-03-25T09:05:56.055Z,14.67
2023-03-25T09:08:24.081Z,14.73
2023-03-25T09:10:51.987Z,14.74
2023-03-25T09:13:21.206Z,14.87
2023-03-25T09:15:49.383Z,14.94
2023-03-25T09:18:17.633Z,14.80
2023-03-25T09:20:47.701Z,14.86
2023-03-25T09:23:16.201Z,15.20
2023-03-25T09:25:44.216Z,15.46
2023-03-25T09:28:12.111Z,15.68
2023-03-25T09:30:41.295Z,15.73
2023-03-25T09:33:09.185Z,15.70
2023-03-25T09:35:37.097Z,15.63
2023-03-25T09:38:05.726Z,15.66
2023-03-25T09:40:33.586Z,15.69
2023-03-25T09:43:08.806Z,15.70
2023-03-25T09:45:38.870Z,15.62
2023-03-25T09:48:18.891Z,15.53
2023-03-25T09:50:48.589Z,15.27
2023-03-25T09:53:26.880Z,15.08
2023-03-25T09:55:55.193Z,14.84
2023-03-25T09:58:31.058Z,14.79
2023-03-25T10:01:05.786Z,14.80
2023-03-25T10:03:43.795Z,14.91
2023-03-25T10:06:18.733Z,15.09
2023-03-25T10:09:01.722Z,15.32
2023-03-25T10:11:38.930Z,15.46
2023-03-25T10:14:12.196Z,15.40
2023-03-25T10:16:52.599Z,15.61
2023-03-25T10:19:36.558Z,16.00
2023-03-25T10:22:06.560Z,16.08
2023-03-25T10:24:40.189Z,16.14
2023-03-25T10:27:16.756Z,15.88
2023-03-25T10:29:48.890Z,15.72
2023-03-25T10:32:19.877Z,15.80
2023-03-25T10:34:52.894Z,15.65
2023-03-25T10:37:28.933Z,15.56
2023-03-25T10:40:00.519Z,15.55
2023-03-25T10:42:33.334Z,15.55
2023-03-25T10:45:01.397Z,15.51
2023-03-25T10:47:34.308Z,15.63
2023-03-25T10:50:04.583Z,15.65
2023-03-25T10:52:32.460Z,15.69
2023-03-25T10:55:00.538Z,15.68
2023-03-25T10:57:30.998Z,15.72
2023-03-25T11:00:07.937Z,15.72
2023-03-25T11:02:35.960Z,15.77
2023-03-25T11:05:08.682Z,15.79
2023-03-25T11:07:38.572Z,15.76
2023-03-25T11:10:12.225Z,16.00
2023-03-25T11:12:43.705Z,15.96
2023-03-25T11:15:14.829Z,15.91
2023-03-25T11:17:43.151Z,15.92
2023-03-25T11:20:21.506Z,15.82
2023-03-25T11:22:52.770Z,15.76
2023-03-25T11:25:25.730Z,15.63
2023-03-25T11:27:57.586Z,15.69
2023-03-25T11:30:27.055Z,15.74
2023-03-25T11:33:00.052Z,15.91
2023-03-25T11:35:32.196Z,16.02
2023-03-25T11:38:02.596Z,16.02
2023-03-25T11:40:31.808Z,16.07
2023-03-25T11:43:01.598Z,16.12
2023-03-25T11:45:35.781Z,16.06
2023-03-25T11:48:12.286Z,15.95
2023-03-25T11:50:52.235Z,16.01
2023-03-25T11:53:21.861Z,16.03
2023-03-25T11:55:53.933Z,16.01
2023-03-25T11:58:27.277Z,15.93
2023-03-25T12:01:02.659Z,15.87
2023-03-25T12:03:33.577Z,15.73
2023-03-25T12:06:15.856Z,15.64
2023-03-25T12:08:49.599Z,15.77
2023-03-25T12:11:23.532Z,15.83
2023-03-25T12:14:17.644Z,15.79
2023-03-25T12:16:52.905Z,15.88
2023-03-25T12:19:29.603Z,16.05
2023-03-25T12:22:21.372Z,16.01
2023-03-25T12:25:13.553Z,15.96
2023-03-25T12:27:54.156Z,15.99
2023-03-25T12:30:37.102Z,16.09
2023-03-25T12:33:18.043Z,16.05
2023-03-25T12:35:50.624Z,15.96
2023-03-25T12:38:34.102Z,15.94
2023-03-25T12:41:16.045Z,15.97
2023-03-25T12:43:58.489Z,16.03
2023-03-25T12:46:42.473Z,15.96
2023-03-25T12:49:25.060Z,15.95
2023-03-25T12:52:04.103Z,15.98
2023-03-25T12:54:54.275Z,15.84
2023-03-25T12:57:38.230Z,15.75
2023-03-25T13:00:18.363Z,15.72
2023-03-25T13:03:08.583Z,15.80
2023-03-25T13:05:41.972Z,15.93
2023-03-25T13:08:17.235Z,15.96
2023-03-25T13:10:50.160Z,15.98
2023-03-25T13:13:24.255Z,15.73
2023-03-25T13:16:05.786Z,15.57
2023-03-25T13:18:38.654Z,15.59
2023-03-25T13:21:14.365Z,15.58
2023-03-25T13:23:45.047Z,15.57
2023-03-25T13:26:18.753Z,15.76
2023-03-25T13:28:49.303Z,15.77
2023-03-25T13:31:20.733Z,15.62
2023-03-25T13:33:54.473Z,15.59
2023-03-25T13:36:29.410Z,15.36
2023-03-25T13:39:00.240Z,15.58
2023-03-25T13:41:35.369Z,15.81
2023-03-25T13:44:08.961Z,16.16
2023-03-25T13:46:39.694Z,16.26
2023-03-25T13:49:17.033Z,16.32
2023-03-25T13:51:45.512Z,16.50
2023-03-25T13:54:19.510Z,16.68
2023-03-25T13:57:45.552Z,16.58
2023-03-25T14:00:36.702Z,16.67
2023-03-25T14:03:37.799Z,16.40
2023-03-25T14:06:36.399Z,16.49
2023-03-25T14:09:30.429Z,16.33
2023-03-25T14:12:04.239Z,16.24
2023-03-25T14:14:36.486Z,16.26
2023-03-25T14:17:07.836Z,16.48
2023-03-25T14:19:38.400Z,16.87
2023-03-25T14:22:14.156Z,17.24
2023-03-25T14:24:42.610Z,17.47
2023-03-25T14:27:19.689Z,17.64
2023-03-25T14:29:55.272Z,17.63
2023-03-25T14:32:35.710Z,17.61
2023-03-25T14:35:41.885Z,17.51
2023-03-25T14:38:49.576Z,17.34
2023-03-25T14:41:17.526Z,17.15
2023-03-25T14:43:53.037Z,17.11
2023-03-25T14:46:23.757Z,17.20
2023-03-25T14:48:55.881Z,17.36
2023-03-25T14:51:47.204Z,17.37
2023-03-25T14:54:29.645Z,17.23
2023-03-25T14:57:03.961Z,16.89
2023-03-25T14:59:36.922Z,16.75
2023-03-25T15:02:10.794Z,16.68
2023-03-25T15:04:41.355Z,16.85
2023-03-25T15:07:14.208Z,16.74
2023-03-25T15:09:50.728Z,16.94
2023-03-25T15:12:22.728Z,16.99
2023-03-25T15:14:56.162Z,17.05
2023-03-25T15:17:43.907Z,17.05
2023-03-25T15:20:35.772Z,16.87
2023-03-25T15:23:33.343Z,16.42
2023-03-25T15:26:03.334Z,16.49
2023-03-25T15:28:51.870Z,16.38
2023-03-25T15:31:38.459Z,16.03
2023-03-25T15:34:16.503Z,15.87
2023-03-25T15:37:06.364Z,15.82
2023-03-25T15:39:47.090Z,16.07
2023-03-25T15:42:47.384Z,16.44
2023-03-25T15:45:41.183Z,16.84
2023-03-25T15:48:28.157Z,17.24
2023-03-25T15:51:07.026Z,17.23
2023-03-25T15:53:53.954Z,17.39
2023-03-25T15:56:24.716Z,17.19
2023-03-25T15:58:57.793Z,16.82
2023-03-25T16:01:30.038Z,16.83
2023-03-25T16:04:01.877Z,16.85
2023-03-25T16:06:32.269Z,16.82
2023-03-25T16:09:02.965Z,16.85
2023-03-25T16:11:31.443Z,16.78
2023-03-25T16:14:04.816Z,16.69
2023-03-25T16:16:36.160Z,16.38
2023-03-25T16:19:06.179Z,16.42
2023-03-25T16:21:34.664Z,16.45
2023-03-25T16:24:07.851Z,16.37
2023-03-25T16:26:38.323Z,16.28
2023-03-25T16:29:16.496Z,16.12
2023-03-25T16:31:53.692Z,16.14
2023-03-25T16:34:22.484Z,16.09
2023-03-25T16:36:53.367Z,15.87
2023-03-25T16:39:24.478Z,15.66
2023-03-25T16:42:00.524Z,15.47
2023-03-25T16:44:28.801Z,15.34
2023-03-25T16:46:56.962Z,15.16
2023-03-25T16:49:30.973Z,15.05
2023-03-25T16:52:02.182Z,14.85
2023-03-25T16:54:37.622Z,14.87
2023-03-25T16:57:08.155Z,14.78
2023-03-25T16:59:37.785Z,14.75
2023-03-25T17:02:23.782Z,14.66
2023-03-25T17:04:55.868Z,14.63
2023-03-25T17:07:27.635Z,14.55
2023-03-25T17:09:59.881Z,14.48
2023-03-25T17:12:30.149Z,14.41
2023-03-25T17:15:06.754Z,14.37
2023-03-25T17:17:41.516Z,14.31
2023-03-25T17:20:18.307Z,14.25
2023-03-25T17:22:59.476Z,14.07
2023-03-25T17:25:32.840Z,14.17
2023-03-25T17:28:08.148Z,14.11
2023-03-25T17:30:43.494Z,14.06
2023-03-25T17:33:15.658Z,14.03
2023-03-25T17:35:46.838Z,13.99
2023-03-25T17:38:22.210Z,13.95
2023-03-25T17:40:59.780Z,13.92
2023-03-25T17:43:29.627Z,13.88
2023-03-25T17:45:57.532Z,13.88
2023-03-25T17:48:26.322Z,13.81
2023-03-25T17:50:55.975Z,13.81
2023-03-25T17:53:24.770Z,13.77
2023-03-25T17:55:52.868Z,13.74
2023-03-25T17:58:23.371Z,13.71
2023-03-25T18:00:52.204Z,13.65
2023-03-25T18:03:23.862Z,13.60
2023-03-25T18:05:53.784Z,13.57
2023-03-25T18:08:22.901Z,13.57
2023-03-25T18:10:51.463Z,13.56
2023-03-25T18:13:21.649Z,13.57
2023-03-25T18:15:51.496Z,13.60
2023-03-25T18:18:21.367Z,13.63
2023-03-25T18:20:49.891Z,13.67
2023-03-25T18:23:18.047Z,13.64
2023-03-25T18:25:46.405Z,13.59
2023-03-25T18:28:15.569Z,13.55
2023-03-25T18:30:46.984Z,13.51
2023-03-25T18:33:16.493Z,13.52
2023-03-25T18:35:44.869Z,13.43
2023-03-25T18:38:19.181Z,13.19
2023-03-25T18:40:48.155Z,12.95
2023-03-25T18:43:16.392Z,12.84
2023-03-25T18:45:44.660Z,12.88
2023-03-25T18:48:13.565Z,12.92
2023-03-25T18:50:48.476Z,12.89
2023-03-25T18:53:16.480Z,12.78
2023-03-25T18:55:45.979Z,12.64
2023-03-25T18:58:17.448Z,12.48
2023-03-25T19:00:46.723Z,12.37
2023-03-25T19:03:15.210Z,12.20
2023-03-25T19:05:45.246Z,12.07
2023-03-25T19:08:18.279Z,12.03
2023-03-25T19:10:47.362Z,12.04
2023-03-25T19:13:16.207Z,11.98
2023-03-25T19:15:44.259Z,11.81
2023-03-25T19:18:16.952Z,11.79
2023-03-25T19:20:47.877Z,11.76
2023-03-25T19:23:17.479Z,11.66
2023-03-25T19:25:46.762Z,11.65
2023-03-25T19:28:16.761Z,11.59
2023-03-25T19:30:46.203Z,11.54
2023-03-25T19:33:15.500Z,11.56
2023-03-25T19:35:49.770Z,11.54
2023-03-25T19:38:22.779Z,11.57
2023-03-25T19:40:52.480Z,11.59
2023-03-25T19:43:20.528Z,11.58
2023-03-25T19:45:48.476Z,11.60
2023-03-25T19:48:16.433Z,11.61
2023-03-25T19:50:44.310Z,11.61
2023-03-25T19:53:12.252Z,11.58
2023-03-25T19:55:44.575Z,11.57
2023-03-25T19:58:12.478Z,11.53
2023-03-25T20:00:40.446Z,11.54
2023-03-25T20:03:08.796Z,11.52
2023-03-25T20:05:37.892Z,11.52
2023-03-25T20:08:06.377Z,11.48
2023-03-25T20:10:34.353Z,11.45
2023-03-25T20:13:04.236Z,11.47
2023-03-25T20:15:32.396Z,11.42
2023-03-25T20:18:00.676Z,11.37
2023-03-25T20:20:28.718Z,11.36
2023-03-25T20:22:56.655Z,11.40
2023-03-25T20:25:24.573Z,11.40
2023-03-25T20:27:52.574Z,11.46
2023-03-25T20:30:22.000Z,11.49
2023-03-25T20:32:50.128Z,11.51
2023-03-25T20:35:19.645Z,11.53
2023-03-25T20:37:51.890Z,11.54
2023-03-25T20:40:25.374Z,11.45
2023-03-25T20:42:58.901Z,11.48
2023-03-25T20:45:30.090Z,11.50
2023-03-25T20:47:59.122Z,11.48
2023-03-25T20:50:27.204Z,11.54
2023-03-25T20:52:55.761Z,11.50
2023-03-25T20:55:23.828Z,11.53
2023-03-25T20:57:51.844Z,11.52
2023-03-25T21:00:19.700Z,11.46
2023-03-25T21:02:50.675Z,11.43
2023-03-25T21:05:18.952Z,11.35
2023-03-25T21:07:46.874Z,11.35
2023-03-25T21:10:14.947Z,11.34
2023-03-25T21:12:44.634Z,11.17
2023-03-25T21:15:14.318Z,11.01
2023-03-25T21:17:42.464Z,10.83
2023-03-25T21:20:12.941Z,10.75
2023-03-25T21:22:44.284Z,10.77
2023-03-25T21:25:16.588Z,10.82
2023-03-25T21:27:45.443Z,10.79
2023-03-25T21:30:14.836Z,10.75
2023-03-25T21:32:43.065Z,10.68
2023-03-25T21:35:12.774Z,10.61
2023-03-25T21:37:40.815Z,10.50
2023-03-25T21:40:11.538Z,10.53
2023-03-25T21:42:41.268Z,10.52
2023-03-25T21:45:11.441Z,10.52
2023-03-25T21:47:39.352Z,10.50
2023-03-25T21:50:09.917Z,10.53
2023-03-25T21:52:43.459Z,10.55
2023-03-25T21:55:12.585Z,10.55
2023-03-25T21:57:44.282Z,10.55
2023-03-25T22:00:16.779Z,10.56
2023-03-25T22:02:46.554Z,10.58
2023-03-25T22:05:16.397Z,10.53
2023-03-25T22:07:45.717Z,10.53
2023-03-25T22:10:13.681Z,10.51
2023-03-25T22:12:41.652Z,10.45
2023-03-25T22:15:10.941Z,10.50
2023-03-25T22:17:38.842Z,10.47
2023-03-25T22:20:08.669Z,10.45
2023-03-25T22:22:36.723Z,10.46
2023-03-25T22:25:06.904Z,10.47
2023-03-25T22:27:34.881Z,10.43
2023-03-25T22:30:03.022Z,10.46
2023-03-25T22:32:30.982Z,10.47
2023-03-25T22:34:58.861Z,10.54
2023-03-25T22:37:26.937Z,10.61
2023-03-25T22:39:54.918Z,10.64
2023-03-25T22:42:25.800Z,10.66
2023-03-25T22:44:53.732Z,10.67
2023-03-25T22:47:21.705Z,10.67
2023-03-25T22:49:52.143Z,10.66
2023-03-25T22:52:20.040Z,10.67
2023-03-25T22:54:48.020Z,10.72
2023-03-25T22:57:16.239Z,10.73
2023-03-25T22:59:45.456Z,10.70
2023-03-25T23:02:14.601Z,10.64
2023-03-25T23:04:42.525Z,10.63
2023-03-25T23:07:10.479Z,10.63
2023-03-25T23:09:42.132Z,10.66
2023-03-25T23:12:11.395Z,10.69
2023-03-25T23:14:40.566Z,10.74
2023-03-25T23:17:12.041Z,10.81
2023-03-25T23:19:40.524Z,10.86
2023-03-25T23:22:09.075Z,10.84
2023-03-25T23:24:37.981Z,10.85
2023-03-25T23:27:08.043Z,10.86
2023-03-25T23:29:37.310Z,10.84
2023-03-25T23:32:07.164Z,10.87
2023-03-25T23:34:38.305Z,10.86
2023-03-25T23:37:09.084Z,10.86
2023-03-25T23:39:40.268Z,10.85
2023-03-25T23:42:08.235Z,10.83
2023-03-25T23:44:36.356Z,10.77
2023-03-25T23:47:04.824Z,10.71
2023-03-25T23:49:33.917Z,10.72
2023-03-25T23:52:03.227Z,10.74
2023-03-25T23:54:31.193Z,10.72
2023-03-25T23:56:59.298Z,10.64
2023-03-25T23:59:27.139Z,10.64
